Time;durP1;ratioP1;P1;durP2;ratioP2;P2;SDS_P1;SDS_P2;PMS_P1;PMS_P2;Temp;Humidity;BMP_temperature;BMP_pressure;BME280_temperature;BME280_humidity;BME280_pressure;Samples;Min_cycle;Max_cycle;Signal;HPM_P1;HPM_P2
2022/08/17 04:01:45;;;;;;;18.90;17.40;;;18.50;99.90;;;;;;5301350;23;20831;-71
2022/08/17 04:04:12;;;;;;;19.47;17.87;;;18.50;99.90;;;;;;4918477;29;20915;-71
2022/08/17 04:06:40;;;;;;;19.47;17.83;;;18.50;99.90;;;;;;4914540;29;20476;-72
2022/08/17 04:09:07;;;;;;;18.40;17.00;;;18.50;99.90;;;;;;4915424;29;20485;-72
2022/08/17 04:11:35;;;;;;;18.80;17.07;;;18.40;99.90;;;;;;4915077;29;20492;-72
2022/08/17 04:14:03;;;;;;;16.57;15.37;;;18.50;99.90;;;;;;4916762;29;20502;-72
2022/08/17 04:16:32;;;;;;;18.57;17.07;;;18.50;99.90;;;;;;4913135;29;20473;-73
2022/08/17 04:19:00;;;;;;;19.80;18.30;;;18.50;99.90;;;;;;4915437;29;20477;-72
2022/08/17 04:21:27;;;;;;;18.77;17.27;;;18.50;99.90;;;;;;4918596;29;20497;-72
2022/08/17 04:23:54;;;;;;;18.40;17.10;;;18.50;99.90;;;;;;4915838;29;20484;-72
2022/08/17 04:26:21;;;;;;;19.53;17.93;;;18.40;99.90;;;;;;4908775;29;20552;-72
2022/08/17 04:28:48;;;;;;;18.83;17.23;;;18.40;99.90;;;;;;4918512;29;20504;-72
2022/08/17 04:31:15;;;;;;;19.37;17.77;;;18.40;99.90;;;;;;4917248;29;20488;-71
2022/08/17 04:33:43;;;;;;;18.70;17.20;;;18.40;99.90;;;;;;4917336;29;20473;-72
2022/08/17 04:36:13;;;;;;;17.60;16.03;;;18.50;99.90;;;;;;4911275;29;20473;-72
2022/08/17 04:38:42;;;;;;;19.80;18.10;;;18.50;99.90;;;;;;4909185;29;20627;-72
2022/08/17 04:43:57;;;;;;;21.03;19.37;;;18.50;99.90;;;;;;4904165;29;20613;-73
2022/08/17 04:46:25;;;;;;;18.70;17.10;;;18.50;99.90;;;;;;4906193;29;20480;-73
2022/08/17 04:48:54;;;;;;;20.67;19.00;;;18.60;99.90;;;;;;4912178;29;20473;-73
2022/08/17 04:51:26;;;;;;;20.10;18.53;;;18.80;99.90;;;;;;4912922;29;22183;-73
2022/08/17 04:53:56;;;;;;;18.40;16.80;;;19.20;99.90;;;;;;4912610;29;20556;-73
2022/08/17 04:56:24;;;;;;;17.27;15.90;;;19.50;99.90;;;;;;4913596;29;20469;-73
2022/08/17 04:58:53;;;;;;;16.30;15.13;;;19.70;99.90;;;;;;4915552;29;20557;-73
2022/08/17 05:01:22;;;;;;;17.37;16.03;;;19.80;99.90;;;;;;4915216;29;21071;-73
2022/08/17 05:03:49;;;;;;;16.33;15.07;;;19.70;99.90;;;;;;4915157;29;20851;-73
2022/08/17 05:06:16;;;;;;;16.90;15.70;;;19.60;99.90;;;;;;4904807;29;20490;-73
2022/08/17 05:08:44;;;;;;;16.40;15.20;;;19.70;99.90;;;;;;4916058;29;21339;-73
2022/08/17 05:11:10;;;;;;;17.60;16.23;;;19.60;99.90;;;;;;4911491;29;20495;-73
2022/08/17 05:13:37;;;;;;;16.70;15.27;;;19.60;99.90;;;;;;4915525;29;20952;-73
2022/08/17 05:16:04;;;;;;;17.53;16.03;;;19.60;99.90;;;;;;4912723;29;20478;-73
2022/08/17 05:18:32;;;;;;;17.00;15.60;;;19.60;99.90;;;;;;4913186;29;20476;-72
2022/08/17 05:20:59;;;;;;;17.80;16.60;;;19.60;99.90;;;;;;4915019;29;20490;-73
2022/08/17 05:23:27;;;;;;;18.40;17.00;;;19.60;99.90;;;;;;4912642;29;20481;-72
2022/08/17 05:25:57;;;;;;;18.33;16.97;;;19.70;99.90;;;;;;4910843;29;20475;-73
2022/08/17 05:28:27;;;;;;;17.10;15.83;;;19.70;99.90;;;;;;4911313;29;20841;-73
2022/08/17 05:30:55;;;;;;;18.10;16.60;;;19.80;99.90;;;;;;4914624;29;20986;-73
2022/08/17 05:33:24;;;;;;;16.17;14.77;;;19.80;99.90;;;;;;4910637;29;20477;-73
2022/08/17 05:35:53;;;;;;;17.40;15.77;;;19.90;99.90;;;;;;4905975;29;20486;-64
2022/08/17 05:38:24;;;;;;;15.47;14.47;;;19.90;99.90;;;;;;4909035;29;20568;-64
2022/08/17 05:40:52;;;;;;;16.07;14.97;;;20.00;99.90;;;;;;4904546;29;20491;-72
2022/08/17 05:43:21;;;;;;;17.97;16.63;;;20.00;99.90;;;;;;4912243;29;20474;-73
2022/08/17 05:45:56;;;;;;;17.10;15.87;;;20.00;99.90;;;;;;4916210;29;20471;-71
2022/08/17 05:48:23;;;;;;;17.13;15.80;;;20.10;99.90;;;;;;4912673;29;20478;-72
2022/08/17 05:51:00;;;;;;;16.80;15.07;;;20.10;99.90;;;;;;4916054;29;20480;-72
2022/08/17 05:53:32;;;;;;;17.80;16.50;;;20.10;99.90;;;;;;4913623;29;20851;-72
2022/08/17 05:56:09;;;;;;;16.33;15.03;;;20.20;99.90;;;;;;4914939;29;20964;-74
2022/08/17 05:58:47;;;;;;;17.80;16.50;;;20.30;99.90;;;;;;4915136;29;20472;-72
2022/08/17 06:01:26;;;;;;;17.10;15.90;;;20.40;99.90;;;;;;4910420;29;20500;-72
2022/08/17 06:04:02;;;;;;;17.77;16.47;;;20.50;99.90;;;;;;4909327;29;20826;-72
2022/08/17 06:06:40;;;;;;;18.33;16.53;;;20.50;99.90;;;;;;4913147;29;20484;-73
2022/08/17 06:09:21;;;;;;;19.00;17.40;;;20.60;99.90;;;;;;4914741;29;20468;-72
2022/08/17 06:11:52;;;;;;;18.40;16.93;;;20.70;99.90;;;;;;4913437;29;20489;-73
2022/08/17 06:14:39;;;;;;;17.33;16.00;;;20.90;99.90;;;;;;4914896;29;20480;-73
2022/08/17 06:17:10;;;;;;;17.00;15.80;;;21.20;99.90;;;;;;4911144;29;20484;-73
2022/08/17 06:19:40;;;;;;;15.93;14.73;;;21.70;99.90;;;;;;4915210;29;20469;-73
2022/08/17 06:22:08;;;;;;;15.60;14.33;;;22.20;99.90;;;;;;4906824;29;20493;-73
2022/08/17 06:24:38;;;;;;;14.80;13.83;;;22.70;99.90;;;;;;4914780;29;20845;-72
2022/08/17 06:27:11;;;;;;;15.97;14.87;;;23.10;99.90;;;;;;4912868;29;20489;-73
2022/08/17 06:29:47;;;;;;;15.60;14.60;;;23.50;99.90;;;;;;4915096;29;20550;-70
2022/08/17 06:32:17;;;;;;;16.17;14.97;;;24.10;99.90;;;;;;4913690;29;20490;-73
2022/08/17 06:34:45;;;;;;;14.43;13.53;;;24.50;99.90;;;;;;4907815;29;20518;-71
2022/08/17 06:37:48;;;;;;;14.17;13.27;;;25.00;99.90;;;;;;4905912;29;20472;-72
2022/08/17 06:40:26;;;;;;;14.77;13.77;;;25.50;99.90;;;;;;4911380;29;20530;-72
2022/08/17 06:43:15;;;;;;;13.80;12.90;;;26.00;99.90;;;;;;4912318;29;20499;-72
2022/08/17 06:45:48;;;;;;;15.30;14.20;;;26.30;99.90;;;;;;4907572;29;20474;-72
2022/08/17 06:48:23;;;;;;;16.53;15.53;;;26.60;99.90;;;;;;4911913;29;20941;-72
2022/08/17 06:50:54;;;;;;;15.90;14.70;;;26.70;99.90;;;;;;4914949;29;20489;-72
2022/08/17 06:53:25;;;;;;;15.33;14.33;;;26.90;99.90;;;;;;4913281;29;20493;-72
2022/08/17 06:55:57;;;;;;;15.80;14.23;;;27.10;99.90;;;;;;4914806;29;20497;-72
2022/08/17 06:58:26;;;;;;;14.73;13.73;;;27.30;99.90;;;;;;4911271;29;20510;-72
2022/08/17 07:00:57;;;;;;;13.03;12.33;;;27.50;99.90;;;;;;4914535;29;20965;-72
2022/08/17 07:03:36;;;;;;;14.80;13.80;;;27.60;99.90;;;;;;4912162;29;20974;-72
2022/08/17 07:06:08;;;;;;;15.10;14.30;;;27.90;99.90;;;;;;4907528;29;20568;-72
2022/08/17 07:08:50;;;;;;;13.07;12.17;;;27.80;99.90;;;;;;4911593;29;20960;-72
2022/08/17 07:11:22;;;;;;;13.17;12.47;;;27.80;99.90;;;;;;4912349;29;20611;-72
2022/08/17 07:13:57;;;;;;;15.10;14.00;;;28.30;99.90;;;;;;4907209;29;20467;-72
2022/08/17 07:16:30;;;;;;;13.93;13.00;;;28.40;99.90;;;;;;4912028;29;20467;-72
2022/08/17 07:18:58;;;;;;;15.30;14.40;;;28.20;99.90;;;;;;4906624;29;20569;-72
2022/08/17 07:21:39;;;;;;;14.50;13.60;;;27.70;99.90;;;;;;4912534;29;20574;-72
2022/08/17 07:24:30;;;;;;;13.93;13.13;;;27.40;99.90;;;;;;4909173;29;20884;-72
2022/08/17 07:27:14;;;;;;;14.63;13.73;;;27.30;99.90;;;;;;4894328;29;20825;-72
2022/08/17 07:29:46;;;;;;;13.97;13.17;;;27.50;99.90;;;;;;4906274;29;20554;-72
2022/08/17 07:32:19;;;;;;;14.20;13.40;;;27.70;99.90;;;;;;4901984;29;20494;-72
2022/08/17 07:35:09;;;;;;;13.17;12.53;;;27.80;99.90;;;;;;4911323;29;20857;-72
2022/08/17 07:37:37;;;;;;;14.10;13.10;;;27.80;99.90;;;;;;4912271;29;20972;-72
2022/08/17 07:40:21;;;;;;;14.57;13.60;;;27.80;99.90;;;;;;4908864;29;20869;-72
2022/08/17 07:43:01;;;;;;;12.10;11.40;;;27.90;99.90;;;;;;4906693;29;20878;-72
2022/08/17 07:48:19;;;;;;;12.50;11.70;;;27.90;99.90;;;;;;4912198;29;20505;-72
2022/08/17 07:50:47;;;;;;;12.47;11.70;;;27.60;99.90;;;;;;4912947;29;20513;-72
2022/08/17 07:53:18;;;;;;;12.80;12.10;;;27.50;99.90;;;;;;4913967;29;20466;-71
2022/08/17 07:55:45;;;;;;;12.53;11.83;;;27.20;99.90;;;;;;4911238;29;20471;-71
2022/08/17 07:58:16;;;;;;;12.87;12.00;;;26.80;99.90;;;;;;4911876;29;20534;-72
2022/08/17 08:00:43;;;;;;;13.30;12.27;;;26.60;99.90;;;;;;4900610;29;20502;-71
2022/08/17 08:03:25;;;;;;;13.33;12.53;;;26.40;99.90;;;;;;4914055;29;20493;-71
2022/08/17 08:05:56;;;;;;;12.43;11.43;;;26.20;99.90;;;;;;4907803;29;20530;-71
2022/08/17 08:08:29;;;;;;;12.50;11.70;;;26.20;99.90;;;;;;4909448;29;20467;-72
2022/08/17 08:11:02;;;;;;;12.50;11.70;;;26.20;99.90;;;;;;4909395;29;21011;-71
2022/08/17 08:13:32;;;;;;;12.63;11.83;;;26.20;99.90;;;;;;4912643;29;20563;-72
2022/08/17 08:16:18;;;;;;;12.40;11.70;;;26.30;99.90;;;;;;4912132;29;20474;-71
2022/08/17 08:18:50;;;;;;;13.13;12.33;;;26.30;99.90;;;;;;4899707;29;20567;-72
2022/08/17 08:21:27;;;;;;;11.70;11.10;;;26.40;99.90;;;;;;4917042;29;20930;-72
2022/08/17 08:24:01;;;;;;;13.53;12.73;;;26.50;99.90;;;;;;4914726;29;20497;-72
2022/08/17 08:26:37;;;;;;;12.90;11.90;;;26.50;99.90;;;;;;4916697;29;20455;-72
2022/08/17 08:29:11;;;;;;;12.80;11.90;;;26.40;99.90;;;;;;4913058;29;20878;-72
2022/08/17 08:31:56;;;;;;;13.10;11.97;;;26.40;99.90;;;;;;4913151;29;20490;-71
2022/08/17 08:34:32;;;;;;;12.37;11.67;;;26.50;99.90;;;;;;4909620;29;20505;-72
2022/08/17 08:37:07;;;;;;;11.63;11.00;;;26.60;99.90;;;;;;4915332;29;20529;-71
2022/08/17 08:39:43;;;;;;;12.40;11.67;;;26.60;99.90;;;;;;4911484;29;20983;-72
2022/08/17 08:42:23;;;;;;;13.30;12.50;;;26.60;99.90;;;;;;4914695;29;20987;-72
2022/08/17 08:44:58;;;;;;;12.33;11.67;;;26.60;99.90;;;;;;4906699;29;20474;-72
2022/08/17 08:47:40;;;;;;;12.73;12.03;;;26.70;99.90;;;;;;4921134;29;20478;-72
2022/08/17 08:50:22;;;;;;;10.33;9.80;;;26.80;99.90;;;;;;4918906;29;20515;-71
2022/08/17 08:53:03;;;;;;;9.37;8.87;;;26.90;99.90;;;;;;4914162;29;20494;-71
2022/08/17 08:55:42;;;;;;;10.07;9.40;;;26.90;99.90;;;;;;4913809;29;20936;-71
2022/08/17 08:58:14;;;;;;;9.90;9.20;;;26.90;99.90;;;;;;4916651;29;20474;-71
2022/08/17 09:00:47;;;;;;;8.90;8.40;;;27.00;99.90;;;;;;4911664;29;20502;-75
2022/08/17 09:03:54;;;;;;;8.60;8.10;;;27.00;99.90;;;;;;4916932;29;20490;-70
2022/08/17 09:06:43;;;;;;;10.37;9.77;;;27.10;99.90;;;;;;4914601;29;20577;-71
2022/08/17 09:09:23;;;;;;;10.17;9.57;;;27.10;99.90;;;;;;4911626;29;20478;-71
2022/08/17 09:12:00;;;;;;;10.80;9.90;;;27.20;99.90;;;;;;4910096;29;20509;-71
2022/08/17 09:14:34;;;;;;;9.87;9.37;;;27.40;99.90;;;;;;4913339;29;20475;-71
2022/08/17 09:17:11;;;;;;;11.03;10.43;;;27.60;99.90;;;;;;4916644;29;20470;-71
2022/08/17 09:19:43;;;;;;;11.00;10.40;;;27.70;99.90;;;;;;4908089;29;20471;-71
2022/08/17 09:22:23;;;;;;;10.53;10.03;;;27.70;99.90;;;;;;4916506;29;20498;-71
2022/08/17 09:24:57;;;;;;;10.93;10.27;;;27.80;99.90;;;;;;4909918;29;20482;-71
2022/08/17 09:27:28;;;;;;;10.00;9.50;;;27.90;99.90;;;;;;4916019;29;20992;-71
2022/08/17 09:30:01;;;;;;;11.47;10.77;;;28.00;99.90;;;;;;4912096;29;20910;-71
2022/08/17 09:32:34;;;;;;;10.87;10.00;;;27.90;99.90;;;;;;4916504;29;20530;-71
2022/08/17 09:35:09;;;;;;;10.67;10.17;;;28.00;99.90;;;;;;4911333;29;20976;-69
2022/08/17 09:37:58;;;;;;;10.50;9.80;;;28.00;99.90;;;;;;4908672;29;21008;-71
2022/08/17 09:40:30;;;;;;;9.00;8.40;;;28.10;99.90;;;;;;4910940;29;20470;-71
2022/08/17 09:43:06;;;;;;;8.97;8.10;;;28.10;99.90;;;;;;4909926;29;20486;-71
2022/08/17 09:45:41;;;;;;;8.63;8.03;;;28.00;99.90;;;;;;4913977;29;20648;-71
2022/08/17 09:48:14;;;;;;;9.23;8.67;;;28.10;99.90;;;;;;4911868;29;20876;-71
2022/08/17 09:50:44;;;;;;;9.53;8.87;;;28.00;99.90;;;;;;4908818;29;20503;-71
2022/08/17 09:53:12;;;;;;;7.80;7.40;;;28.00;99.90;;;;;;4912117;29;20991;-71
2022/08/17 09:55:56;;;;;;;8.07;7.77;;;27.90;99.90;;;;;;4913323;29;20475;-71
2022/08/17 09:58:33;;;;;;;9.27;8.70;;;28.00;99.90;;;;;;4913605;29;20469;-70
2022/08/17 10:01:06;;;;;;;8.60;8.20;;;28.10;99.90;;;;;;4909825;29;20499;-70
2022/08/17 10:03:47;;;;;;;9.10;8.60;;;28.10;99.90;;;;;;4914705;29;21000;-70
2022/08/17 10:06:20;;;;;;;9.10;8.50;;;28.20;99.90;;;;;;4913559;29;20844;-71
2022/08/17 10:08:54;;;;;;;8.93;8.33;;;28.30;99.90;;;;;;4907125;29;20482;-71
2022/08/17 10:14:20;;;;;;;9.13;8.60;;;28.50;99.90;;;;;;4914833;29;20960;-69
2022/08/17 10:16:54;;;;;;;8.90;8.50;;;28.70;99.90;;;;;;4909409;29;20471;-69
2022/08/17 10:19:26;;;;;;;9.40;8.80;;;28.70;99.90;;;;;;4914120;29;20498;-69
2022/08/17 10:27:35;;;;;;;7.80;7.40;;;28.80;99.90;;;;;;4909025;29;20833;-70
2022/08/17 10:30:03;;;;;;;8.13;7.73;;;28.90;99.90;;;;;;4910618;29;20506;-70
2022/08/17 10:32:34;;;;;;;8.60;8.03;;;29.00;99.90;;;;;;4908742;29;20489;-70
2022/08/17 10:35:24;;;;;;;7.97;7.67;;;29.00;99.90;;;;;;4907955;29;20497;-70
2022/08/17 10:38:35;;;;;;;8.40;8.00;;;29.10;99.90;;;;;;4899582;29;20582;-70
2022/08/17 10:41:15;;;;;;;7.50;7.20;;;29.20;99.90;;;;;;4909257;29;20565;-70
2022/08/17 10:43:51;;;;;;;9.37;8.87;;;29.20;99.90;;;;;;4902170;29;20498;-71
2022/08/17 10:46:24;;;;;;;7.37;7.07;;;29.30;99.90;;;;;;4913141;29;20553;-69
2022/08/17 10:49:21;;;;;;;8.13;7.73;;;29.40;99.90;;;;;;4915276;29;20522;-70
2022/08/17 10:51:51;;;;;;;8.13;7.63;;;29.40;99.90;;;;;;4909360;29;20484;-70
2022/08/17 10:54:35;;;;;;;8.20;7.80;;;29.50;99.90;;;;;;4910752;29;20471;-71
2022/08/17 10:57:33;;;;;;;8.43;7.90;;;29.50;99.90;;;;;;4908313;29;20468;-70
2022/08/17 11:00:01;;;;;;;8.80;8.30;;;29.40;99.90;;;;;;4909544;29;20941;-71
2022/08/17 11:02:32;;;;;;;8.53;8.03;;;29.40;99.90;;;;;;4908891;29;20529;-71
2022/08/17 11:05:21;;;;;;;9.40;8.77;;;29.20;99.90;;;;;;4915727;29;20463;-71
2022/08/17 11:08:31;;;;;;;8.40;8.10;;;29.30;99.90;;;;;;4911791;29;20620;-70
2022/08/17 11:11:15;;;;;;;8.57;8.07;;;29.40;99.90;;;;;;4893819;29;20493;-71
2022/08/17 11:13:50;;;;;;;7.80;7.50;;;29.50;99.90;;;;;;4907268;29;20608;-71
2022/08/17 11:16:37;;;;;;;8.10;7.70;;;29.60;99.90;;;;;;4913241;29;20481;-70
2022/08/17 11:19:53;;;;;;;7.77;7.27;;;29.80;99.90;;;;;;4909749;29;20463;-71
2022/08/17 11:22:59;;;;;;;8.37;8.07;;;30.00;99.90;;;;;;4841725;29;20494;-71
2022/08/17 11:25:37;;;;;;;8.20;7.80;;;30.10;99.90;;;;;;4915301;29;20455;-71
2022/08/17 11:28:13;;;;;;;7.63;7.33;;;30.10;99.90;;;;;;4907785;29;20477;-70
2022/08/17 11:30:46;;;;;;;8.20;7.80;;;30.00;99.90;;;;;;4907100;29;20488;-71
2022/08/17 11:33:47;;;;;;;8.17;7.77;;;30.00;99.90;;;;;;4907482;29;20472;-71
2022/08/17 11:36:24;;;;;;;7.63;7.33;;;30.10;99.90;;;;;;4911906;29;20824;-70
2022/08/17 11:38:56;;;;;;;7.77;7.47;;;30.20;99.90;;;;;;4907455;29;20467;-70
2022/08/17 11:41:30;;;;;;;8.50;8.20;;;30.20;99.40;;;;;;4914495;29;20884;-71
2022/08/17 11:44:19;;;;;;;7.90;7.50;;;30.20;99.60;;;;;;4910438;29;20501;-71
2022/08/17 11:53:02;;;;;;;7.43;7.17;;;30.10;99.00;;;;;;4910955;29;20549;-70
2022/08/17 11:56:05;;;;;;;8.23;7.93;;;30.00;98.80;;;;;;4911763;29;20892;-70
2022/08/17 11:58:36;;;;;;;8.13;7.73;;;30.00;99.00;;;;;;4911978;29;20468;-71
2022/08/17 12:01:04;;;;;;;8.10;7.70;;;30.00;99.40;;;;;;4915510;29;20510;-70
2022/08/17 12:03:52;;;;;;;7.40;7.10;;;30.10;98.60;;;;;;4915771;29;20866;-70
2022/08/17 12:06:30;;;;;;;7.13;6.93;;;30.00;98.50;;;;;;4903427;29;20948;-70
2022/08/17 12:09:05;;;;;;;6.20;5.90;;;30.10;97.20;;;;;;4917311;29;20473;-70
2022/08/17 12:11:39;;;;;;;7.33;6.70;;;30.20;96.80;;;;;;4913473;29;21023;-70
2022/08/17 12:14:07;;;;;;;7.47;7.17;;;30.20;97.60;;;;;;4908463;29;20475;-70
2022/08/17 12:16:34;;;;;;;7.70;7.20;;;30.20;98.60;;;;;;4915586;29;20545;-70
2022/08/17 12:19:04;;;;;;;7.70;7.30;;;30.10;98.10;;;;;;4917659;29;20463;-70
2022/08/17 12:21:42;;;;;;;6.97;6.67;;;30.10;97.80;;;;;;4915652;29;20483;-70
2022/08/17 12:24:20;;;;;;;7.60;7.10;;;30.20;96.90;;;;;;4915045;29;20487;-70
2022/08/17 12:26:53;;;;;;;8.53;8.17;;;30.20;96.60;;;;;;4911114;29;20470;-70
2022/08/17 12:29:20;;;;;;;7.43;7.13;;;30.30;95.80;;;;;;4910996;29;20496;-70
2022/08/17 12:31:49;;;;;;;8.13;7.63;;;30.30;96.20;;;;;;4914846;29;20593;-70
2022/08/17 12:34:20;;;;;;;7.37;6.97;;;30.30;96.40;;;;;;4913837;29;20796;-70
2022/08/17 12:36:49;;;;;;;7.27;6.97;;;30.30;96.70;;;;;;4913508;29;20501;-70
2022/08/17 12:39:20;;;;;;;8.07;7.73;;;30.40;96.90;;;;;;4913911;29;21042;-70
2022/08/17 12:41:48;;;;;;;8.70;8.20;;;30.40;96.40;;;;;;4907299;29;20499;-70
2022/08/17 12:44:17;;;;;;;7.70;7.40;;;30.60;96.60;;;;;;4916271;29;20498;-70
2022/08/17 12:46:51;;;;;;;7.07;6.77;;;30.60;95.60;;;;;;4915509;29;20944;-70
2022/08/17 12:49:29;;;;;;;7.93;7.67;;;30.70;95.50;;;;;;4916935;29;20463;-69
2022/08/17 12:52:14;;;;;;;7.93;7.53;;;30.80;94.90;;;;;;4908220;29;20533;-70
2022/08/17 12:54:56;;;;;;;7.57;7.07;;;30.90;95.10;;;;;;4904582;29;20465;-70
2022/08/17 12:57:26;;;;;;;7.47;7.17;;;30.90;94.50;;;;;;4914747;29;20483;-70
2022/08/17 12:59:58;;;;;;;7.53;7.23;;;30.90;94.40;;;;;;4916553;29;20461;-70
2022/08/17 13:02:39;;;;;;;7.87;7.27;;;30.90;94.80;;;;;;4907209;29;20562;-70
2022/08/17 13:05:17;;;;;;;7.47;7.17;;;30.90;95.60;;;;;;4916411;29;21057;-70
2022/08/17 13:07:46;;;;;;;8.20;7.80;;;30.90;94.00;;;;;;4912229;29;20563;-70
2022/08/17 13:10:24;;;;;;;6.90;6.60;;;30.80;94.40;;;;;;4914950;29;20473;-71
2022/08/17 13:12:52;;;;;;;7.53;7.33;;;30.70;94.70;;;;;;4907371;29;20493;-71
2022/08/17 13:15:28;;;;;;;7.23;7.03;;;30.70;94.30;;;;;;4915430;29;20945;-69
2022/08/17 13:18:02;;;;;;;6.90;6.70;;;30.60;94.00;;;;;;4908838;29;20494;-69
2022/08/17 13:20:31;;;;;;;8.33;7.93;;;30.60;94.30;;;;;;4914666;29;20795;-70
2022/08/17 13:23:01;;;;;;;7.40;7.00;;;30.50;93.70;;;;;;4910855;29;20479;-69
2022/08/17 13:25:28;;;;;;;7.93;7.63;;;30.50;93.90;;;;;;4915743;29;20453;-70
2022/08/17 13:27:56;;;;;;;6.60;6.30;;;30.50;94.60;;;;;;4910599;29;21010;-70
2022/08/17 13:30:26;;;;;;;6.77;6.47;;;30.60;93.70;;;;;;4916440;29;20463;-70
2022/08/17 13:32:55;;;;;;;6.90;6.63;;;30.50;93.20;;;;;;4910101;29;20471;-70
2022/08/17 13:35:43;;;;;;;7.53;7.13;;;30.50;93.80;;;;;;4916445;29;20461;-70
2022/08/17 13:38:13;;;;;;;7.20;7.00;;;30.40;93.60;;;;;;4912456;29;20470;-70
2022/08/17 13:40:49;;;;;;;8.20;7.80;;;30.30;93.80;;;;;;4895931;29;20491;-69
2022/08/17 13:43:43;;;;;;;7.43;7.13;;;30.30;93.90;;;;;;4908233;29;20586;-70
2022/08/17 13:46:16;;;;;;;7.40;7.17;;;30.30;93.50;;;;;;4908628;29;20479;-70
2022/08/17 13:48:43;;;;;;;7.10;6.90;;;30.30;94.30;;;;;;4908856;29;20459;-70
2022/08/17 13:51:24;;;;;;;6.57;6.37;;;30.30;93.40;;;;;;4913652;29;20487;-70
2022/08/17 13:54:19;;;;;;;6.87;6.37;;;30.30;93.00;;;;;;4915121;29;20825;-69
2022/08/17 13:56:53;;;;;;;6.90;6.60;;;30.30;94.00;;;;;;4909129;29;20475;-69
2022/08/17 13:59:28;;;;;;;6.73;6.50;;;30.40;92.90;;;;;;4908650;29;20480;-70
2022/08/17 14:01:55;;;;;;;6.67;6.47;;;30.40;93.10;;;;;;4908384;29;20506;-70
2022/08/17 14:04:24;;;;;;;7.87;7.47;;;30.40;93.30;;;;;;4906529;29;20498;-69
2022/08/17 14:06:55;;;;;;;7.57;7.27;;;30.40;93.70;;;;;;4906944;29;20474;-70
2022/08/17 14:09:26;;;;;;;7.50;7.10;;;30.30;93.90;;;;;;4902974;29;20968;-67
2022/08/17 14:11:54;;;;;;;7.30;7.00;;;30.30;93.80;;;;;;4903243;29;21056;-68
2022/08/17 14:14:22;;;;;;;7.30;7.00;;;30.30;94.00;;;;;;4910012;29;20477;-69
2022/08/17 14:16:49;;;;;;;6.73;6.43;;;30.40;94.30;;;;;;4908650;29;20467;-68
2022/08/17 14:19:16;;;;;;;7.60;7.30;;;30.30;94.10;;;;;;4905881;29;20562;-68
2022/08/17 14:21:45;;;;;;;7.23;6.83;;;30.40;94.30;;;;;;4905262;29;20499;-67
2022/08/17 14:24:20;;;;;;;7.03;6.73;;;30.40;94.40;;;;;;4900675;29;20505;-66
2022/08/17 14:26:47;;;;;;;6.50;6.30;;;30.40;93.50;;;;;;4907354;29;20475;-67
2022/08/17 14:29:14;;;;;;;7.23;6.83;;;30.50;94.70;;;;;;4907696;29;20475;-68
2022/08/17 14:31:41;;;;;;;7.87;7.57;;;30.50;93.30;;;;;;4903776;29;20495;-68
2022/08/17 14:34:09;;;;;;;7.43;6.80;;;30.40;93.10;;;;;;4904029;29;20475;-69
2022/08/17 14:36:36;;;;;;;8.60;7.90;;;30.40;93.10;;;;;;4911239;29;20511;-68
2022/08/17 14:39:04;;;;;;;7.70;7.30;;;30.40;92.80;;;;;;4904305;29;20484;-68
2022/08/17 14:41:32;;;;;;;6.77;6.47;;;30.30;93.70;;;;;;4913251;29;20496;-69
2022/08/17 14:43:58;;;;;;;6.80;6.60;;;30.40;92.90;;;;;;4909181;29;20854;-69
2022/08/17 14:46:26;;;;;;;6.93;6.63;;;30.40;93.00;;;;;;4909734;29;20903;-70
2022/08/17 14:48:53;;;;;;;6.87;6.57;;;30.30;93.00;;;;;;4904035;29;20515;-68
2022/08/17 14:51:20;;;;;;;6.93;6.50;;;30.30;93.10;;;;;;4905423;29;20869;-69
2022/08/17 14:53:47;;;;;;;7.10;6.80;;;30.30;93.20;;;;;;4902179;29;20559;-69
2022/08/17 14:56:15;;;;;;;6.43;6.13;;;30.20;93.10;;;;;;4909294;29;20479;-68
2022/08/17 14:58:43;;;;;;;6.80;6.50;;;30.10;93.00;;;;;;4899540;29;20478;-68
2022/08/17 15:01:10;;;;;;;6.40;5.93;;;30.00;93.50;;;;;;4910905;29;20817;-68
2022/08/17 15:03:37;;;;;;;7.07;6.73;;;29.90;93.70;;;;;;4907524;29;20486;-69
2022/08/17 15:06:04;;;;;;;6.20;5.90;;;29.90;93.60;;;;;;4915009;29;20953;-69
2022/08/17 15:08:31;;;;;;;7.03;6.83;;;29.70;93.10;;;;;;4907879;29;20486;-70
2022/08/17 15:10:58;;;;;;;6.83;6.43;;;29.60;93.10;;;;;;4913427;29;20502;-69
2022/08/17 15:13:26;;;;;;;6.67;6.37;;;29.60;93.40;;;;;;4905088;29;20505;-70
2022/08/17 15:15:54;;;;;;;6.87;6.63;;;29.50;93.60;;;;;;4911950;29;20478;-68
2022/08/17 15:18:21;;;;;;;7.77;7.30;;;29.40;93.90;;;;;;4904112;29;20554;-69
2022/08/17 15:20:49;;;;;;;7.60;7.20;;;29.40;93.80;;;;;;4906657;29;20568;-69
2022/08/17 15:23:18;;;;;;;6.93;6.73;;;29.40;93.80;;;;;;4906236;29;20960;-70
2022/08/17 15:25:46;;;;;;;7.10;6.80;;;29.40;94.00;;;;;;4910015;29;20494;-70
2022/08/17 15:28:14;;;;;;;7.27;6.93;;;29.50;94.20;;;;;;4903204;29;20515;-69
2022/08/17 15:30:43;;;;;;;7.43;6.93;;;29.50;94.10;;;;;;4903088;29;20551;-69
2022/08/17 15:33:14;;;;;;;7.43;7.03;;;29.60;94.50;;;;;;4895164;29;20464;-69
2022/08/17 15:35:41;;;;;;;7.17;6.87;;;29.60;94.30;;;;;;4903552;29;20475;-69
2022/08/17 15:38:09;;;;;;;6.80;6.50;;;29.60;94.30;;;;;;4906899;29;20474;-70
2022/08/17 15:40:36;;;;;;;7.00;6.60;;;29.50;93.80;;;;;;4906305;29;21019;-69
2022/08/17 15:43:05;;;;;;;8.07;7.67;;;29.50;94.00;;;;;;4909370;29;20467;-69
2022/08/17 15:45:32;;;;;;;7.10;6.70;;;29.50;93.70;;;;;;4909919;29;20497;-69
2022/08/17 15:47:59;;;;;;;8.37;7.47;;;29.50;93.90;;;;;;4909894;29;20491;-70
2022/08/17 15:50:27;;;;;;;7.53;7.03;;;29.50;93.80;;;;;;4902834;29;20563;-69
2022/08/17 15:52:56;;;;;;;6.50;6.20;;;29.60;94.20;;;;;;4911281;29;20475;-69
2022/08/17 15:55:23;;;;;;;7.00;6.67;;;29.60;94.00;;;;;;4911930;29;20462;-67
2022/08/17 15:57:51;;;;;;;7.70;7.30;;;29.60;94.00;;;;;;4902495;29;20480;-68
2022/08/17 16:00:18;;;;;;;7.73;7.33;;;29.60;94.30;;;;;;4900393;29;20475;-69
2022/08/17 16:02:45;;;;;;;7.80;7.40;;;29.60;93.70;;;;;;4901643;29;20502;-69
2022/08/17 16:05:15;;;;;;;6.60;6.40;;;29.60;93.70;;;;;;4907441;29;20488;-69
2022/08/17 16:07:43;;;;;;;7.27;6.87;;;29.50;93.90;;;;;;4898163;29;20474;-69
2022/08/17 16:10:11;;;;;;;7.50;7.20;;;29.50;94.00;;;;;;4907136;29;20865;-69
2022/08/17 16:12:37;;;;;;;6.90;6.57;;;29.50;94.30;;;;;;4913613;29;20487;-69
2022/08/17 16:15:06;;;;;;;6.77;6.47;;;29.50;94.00;;;;;;4907623;29;20475;-69
2022/08/17 16:17:33;;;;;;;7.00;6.70;;;29.70;94.30;;;;;;4906351;29;20468;-69
2022/08/17 16:20:00;;;;;;;7.53;6.60;;;29.80;94.10;;;;;;4905188;29;20471;-69
2022/08/17 16:22:32;;;;;;;6.83;6.53;;;29.80;93.70;;;;;;4907128;29;20576;-69
2022/08/17 16:25:02;;;;;;;6.83;6.63;;;29.80;93.40;;;;;;4906690;29;20486;-69
2022/08/17 16:27:29;;;;;;;6.57;6.27;;;29.70;93.20;;;;;;4901565;29;20573;-69
2022/08/17 16:29:56;;;;;;;6.67;6.37;;;29.70;93.70;;;;;;4904224;29;20476;-70
2022/08/17 16:32:26;;;;;;;8.30;7.90;;;29.60;93.80;;;;;;4906807;29;20487;-70
2022/08/17 16:34:53;;;;;;;7.77;7.30;;;29.50;94.00;;;;;;4908324;29;20970;-70
2022/08/17 16:37:19;;;;;;;7.63;7.23;;;29.50;94.30;;;;;;4914640;23;20509;-68
2022/08/17 16:39:46;;;;;;;7.60;7.30;;;29.40;94.40;;;;;;4914904;29;20474;-67
2022/08/17 16:42:29;;;;;;;7.10;6.70;;;29.40;94.50;;;;;;4910840;29;20550;-68
2022/08/17 16:45:01;;;;;;;6.90;6.50;;;29.30;94.50;;;;;;4910450;29;20483;-67
2022/08/17 16:47:27;;;;;;;7.00;6.60;;;29.20;94.60;;;;;;4910080;29;20602;-68
2022/08/17 16:49:54;;;;;;;7.73;7.23;;;29.20;95.00;;;;;;4914132;29;20478;-67
2022/08/17 16:52:24;;;;;;;6.50;6.30;;;29.20;95.00;;;;;;4911731;29;21019;-67
2022/08/17 16:54:52;;;;;;;7.90;7.60;;;29.10;95.40;;;;;;4912102;29;20471;-67
2022/08/17 16:57:19;;;;;;;7.33;7.03;;;29.00;95.20;;;;;;4906415;29;20516;-67
2022/08/17 16:59:49;;;;;;;7.40;6.90;;;29.00;95.50;;;;;;4908131;29;20484;-67
2022/08/17 17:02:23;;;;;;;7.83;7.40;;;29.00;95.80;;;;;;4904631;29;20872;-66
2022/08/17 17:04:53;;;;;;;7.83;7.33;;;29.00;96.00;;;;;;4901870;29;20512;-67
2022/08/17 17:07:37;;;;;;;7.37;6.87;;;28.90;96.10;;;;;;4907185;29;20494;-67
2022/08/17 17:10:07;;;;;;;7.43;7.03;;;28.90;96.20;;;;;;4909634;29;20475;-68
2022/08/17 17:12:37;;;;;;;7.57;7.27;;;28.80;96.10;;;;;;4904646;29;20992;-67
2022/08/17 17:15:07;;;;;;;7.00;6.70;;;28.80;96.40;;;;;;4908191;29;21034;-68
2022/08/17 17:17:36;;;;;;;7.40;7.00;;;28.70;96.80;;;;;;4907927;29;20502;-69
2022/08/17 17:20:10;;;;;;;8.20;7.90;;;28.70;97.60;;;;;;4904261;29;20472;-67
2022/08/17 17:22:45;;;;;;;8.50;8.00;;;28.60;98.10;;;;;;4908417;29;20475;-68
2022/08/17 17:25:19;;;;;;;8.23;7.73;;;28.50;98.90;;;;;;4905744;29;20570;-68
2022/08/17 17:27:53;;;;;;;9.87;9.30;;;28.40;99.90;;;;;;4900346;29;20496;-68
2022/08/17 17:30:26;;;;;;;9.50;8.87;;;28.30;99.90;;;;;;4910820;29;20998;-68